Time;durP1;ratioP1;P1;durP2;ratioP2;P2;SDS_P1;SDS_P2;PMS_P1;PMS_P2;Temp;Humidity;BMP_temperature;BMP_pressure;BME280_temperature;BME280_humidity;BME280_pressure;Samples;Min_cycle;Max_cycle;Signal;HPM_P1;HPM_P2
2021/01/22 00:00:59;;;;;;;34.20;9.93;;;;;;;;;;5040829;28;20048;-69
2021/01/22 00:03:25;;;;;;;31.08;10.25;;;;;;;;;;5043790;28;20041;-70
2021/01/22 00:05:51;;;;;;;31.88;8.63;;;;;;;;;;5049380;28;20075;-69
2021/01/22 00:08:18;;;;;;;33.95;9.55;;;;;;;;;;5045508;28;20041;-69
2021/01/22 00:10:44;;;;;;;35.92;9.35;;;;;;;;;;5049161;28;20107;-70
2021/01/22 00:13:10;;;;;;;36.95;9.95;;;;;;;;;;5041900;28;20092;-70
2021/01/22 00:15:37;;;;;;;39.93;9.93;;;;;;;;;;5049084;28;20072;-71
2021/01/22 00:18:04;;;;;;;30.65;8.68;;;;;;;;;;5043243;28;20496;-70
2021/01/22 00:20:30;;;;;;;47.53;10.60;;;;;;;;;;5052717;28;20068;-70
2021/01/22 00:22:56;;;;;;;40.78;9.35;;;;;;;;;;5045605;28;20284;-70
2021/01/22 00:25:23;;;;;;;34.92;8.77;;;;;;;;;;5043075;28;20038;-70
2021/01/22 00:27:49;;;;;;;27.48;7.60;;;;;;;;;;5045982;28;20063;-70
2021/01/22 00:30:15;;;;;;;31.63;8.45;;;;;;;;;;5044875;28;20072;-71
2021/01/22 00:32:41;;;;;;;36.50;9.30;;;;;;;;;;5045070;28;20037;-70
2021/01/22 00:35:08;;;;;;;35.95;8.70;;;;;;;;;;5050293;28;20143;-70
2021/01/22 00:37:34;;;;;;;30.55;9.13;;;;;;;;;;5050637;28;20087;-70
2021/01/22 00:40:01;;;;;;;34.25;8.23;;;;;;;;;;5052007;28;20055;-70
2021/01/22 00:42:28;;;;;;;31.90;8.65;;;;;;;;;;5047067;28;20043;-70
2021/01/22 00:44:54;;;;;;;38.15;8.43;;;;;;;;;;5047708;28;20044;-70
2021/01/22 00:47:21;;;;;;;34.40;8.93;;;;;;;;;;5048975;28;20046;-70
2021/01/22 00:49:47;;;;;;;31.17;9.27;;;;;;;;;;5045032;28;20525;-70
2021/01/22 00:52:13;;;;;;;30.77;8.82;;;;;;;;;;5053871;28;20068;-70
2021/01/22 00:54:39;;;;;;;39.90;10.32;;;;;;;;;;5064828;28;20041;-69
2021/01/22 00:57:35;;;;;;;37.97;10.88;;;;;;;;;;4999457;28;20089;-70
2021/01/22 01:00:03;;;;;;;35.47;9.50;;;;;;;;;;5045326;28;20047;-70
2021/01/22 01:02:35;;;;;;;43.22;9.88;;;;;;;;;;5046182;28;20099;-70
2021/01/22 01:05:03;;;;;;;44.70;9.75;;;;;;;;;;5048954;28;20069;-70
2021/01/22 01:07:29;;;;;;;45.08;9.55;;;;;;;;;;5051241;28;20119;-70
2021/01/22 01:09:56;;;;;;;41.10;9.70;;;;;;;;;;5044733;28;20049;-70
2021/01/22 01:12:40;;;;;;;31.98;8.68;;;;;;;;;;5040876;28;20607;-70
2021/01/22 01:15:45;;;;;;;40.58;9.25;;;;;;;;;;5005948;28;20050;-70
2021/01/22 01:18:11;;;;;;;32.40;8.32;;;;;;;;;;5007280;28;20081;-70
2021/01/22 01:20:43;;;;;;;40.92;9.80;;;;;;;;;;5025984;28;20054;-70
2021/01/22 01:23:14;;;;;;;30.05;8.60;;;;;;;;;;5042901;28;20047;-70
2021/01/22 01:25:41;;;;;;;28.77;8.68;;;;;;;;;;5039912;28;20428;-70
2021/01/22 01:28:08;;;;;;;31.52;7.65;;;;;;;;;;5046856;28;20049;-70
2021/01/22 01:30:35;;;;;;;33.83;7.95;;;;;;;;;;5051286;28;20037;-69
2021/01/22 01:33:02;;;;;;;31.70;7.93;;;;;;;;;;5041459;28;20567;-70
2021/01/22 01:35:28;;;;;;;31.83;7.38;;;;;;;;;;5048337;28;20107;-70
2021/01/22 01:37:54;;;;;;;31.00;6.95;;;;;;;;;;5046345;28;20087;-70
2021/01/22 01:40:21;;;;;;;27.52;6.78;;;;;;;;;;5044297;28;20052;-70
2021/01/22 01:42:47;;;;;;;30.80;7.15;;;;;;;;;;5038328;28;20117;-70
2021/01/22 01:45:15;;;;;;;31.60;7.05;;;;;;;;;;5050826;28;20048;-70
2021/01/22 01:47:42;;;;;;;20.75;6.22;;;;;;;;;;5044810;28;20041;-70
2021/01/22 01:50:10;;;;;;;32.17;7.00;;;;;;;;;;5044604;28;20052;-69
2021/01/22 01:52:37;;;;;;;36.45;6.70;;;;;;;;;;5036870;28;20332;-70
2021/01/22 01:55:04;;;;;;;33.90;6.13;;;;;;;;;;5042534;28;20045;-69
2021/01/22 01:57:30;;;;;;;33.45;6.80;;;;;;;;;;5049401;28;20072;-70
2021/01/22 01:59:58;;;;;;;31.88;6.85;;;;;;;;;;5051642;28;20166;-69
2021/01/22 02:02:24;;;;;;;25.00;5.75;;;;;;;;;;5038880;28;20563;-69
2021/01/22 02:04:51;;;;;;;32.58;6.78;;;;;;;;;;5047866;28;20544;-69
2021/01/22 02:07:17;;;;;;;26.30;6.63;;;;;;;;;;5046098;28;20124;-69
2021/01/22 02:09:44;;;;;;;27.38;6.13;;;;;;;;;;5046072;28;20040;-69
2021/01/22 02:12:10;;;;;;;25.63;6.95;;;;;;;;;;5048658;28;20060;-69
2021/01/22 02:14:37;;;;;;;32.65;6.90;;;;;;;;;;5041977;28;20047;-69
2021/01/22 02:17:04;;;;;;;17.27;4.97;;;;;;;;;;5048113;28;20049;-70
2021/01/22 02:19:46;;;;;;;29.65;7.03;;;;;;;;;;5048634;28;20045;-69
2021/01/22 02:22:12;;;;;;;27.45;7.25;;;;;;;;;;5047392;28;20053;-70
2021/01/22 02:24:39;;;;;;;35.80;7.32;;;;;;;;;;5042509;28;20048;-70
2021/01/22 02:27:05;;;;;;;28.92;6.70;;;;;;;;;;5041620;28;20472;-70
2021/01/22 02:29:33;;;;;;;47.00;7.28;;;;;;;;;;5044358;28;20095;-70
2021/01/22 02:32:04;;;;;;;24.92;8.05;;;;;;;;;;5047749;28;20045;-69
2021/01/22 02:34:34;;;;;;;24.92;7.30;;;;;;;;;;5049201;28;20055;-70
2021/01/22 02:37:02;;;;;;;31.73;7.35;;;;;;;;;;5050672;28;20068;-70
2021/01/22 02:39:33;;;;;;;18.58;6.75;;;;;;;;;;5055147;28;20484;-70
2021/01/22 02:42:00;;;;;;;20.80;6.85;;;;;;;;;;5050251;28;20128;-70
2021/01/22 02:44:27;;;;;;;26.00;6.78;;;;;;;;;;5039939;28;20037;-69
2021/01/22 02:46:53;;;;;;;24.87;5.60;;;;;;;;;;5042785;28;20041;-69
2021/01/22 02:49:19;;;;;;;25.33;6.60;;;;;;;;;;5042001;28;20111;-70
2021/01/22 02:51:46;;;;;;;27.83;7.00;;;;;;;;;;5044155;28;20382;-69
2021/01/22 02:54:13;;;;;;;25.20;7.00;;;;;;;;;;5048583;28;20041;-70
2021/01/22 02:56:51;;;;;;;30.40;6.97;;;;;;;;;;5047446;28;20053;-69
2021/01/22 02:59:32;;;;;;;24.98;6.53;;;;;;;;;;5044552;28;20053;-69
2021/01/22 03:02:19;;;;;;;26.63;6.07;;;;;;;;;;5049007;28;20045;-69
2021/01/22 03:04:46;;;;;;;24.25;6.50;;;;;;;;;;5049862;28;20064;-70
2021/01/22 03:07:16;;;;;;;19.47;5.90;;;;;;;;;;5043120;28;20463;-69
2021/01/22 03:09:43;;;;;;;22.42;6.10;;;;;;;;;;5038771;28;20095;-69
2021/01/22 03:12:10;;;;;;;27.80;6.72;;;;;;;;;;5049590;28;20041;-69
2021/01/22 03:14:39;;;;;;;18.65;6.43;;;;;;;;;;5047233;28;20041;-69
2021/01/22 03:17:05;;;;;;;19.35;6.03;;;;;;;;;;5047888;28;20071;-69
2021/01/22 03:19:48;;;;;;;19.23;6.25;;;;;;;;;;5041551;28;20043;-69
2021/01/22 03:22:14;;;;;;;20.88;5.95;;;;;;;;;;5047343;28;20045;-69
2021/01/22 03:24:41;;;;;;;16.30;5.80;;;;;;;;;;5045326;28;20575;-69
2021/01/22 03:27:07;;;;;;;23.98;6.32;;;;;;;;;;5046644;28;20068;-69
2021/01/22 03:29:34;;;;;;;21.45;6.50;;;;;;;;;;5040077;28;20307;-69
2021/01/22 03:32:01;;;;;;;16.58;5.50;;;;;;;;;;5049910;28;20044;-69
2021/01/22 03:34:27;;;;;;;20.80;6.03;;;;;;;;;;5046120;28;20041;-69
2021/01/22 03:36:54;;;;;;;21.98;5.53;;;;;;;;;;5046776;28;20048;-69
2021/01/22 03:39:21;;;;;;;21.15;5.85;;;;;;;;;;5044566;28;20045;-69
2021/01/22 03:41:48;;;;;;;18.48;5.60;;;;;;;;;;5051592;28;20051;-69
2021/01/22 03:44:14;;;;;;;25.35;6.88;;;;;;;;;;5043179;28;20124;-69
2021/01/22 03:46:40;;;;;;;20.45;5.35;;;;;;;;;;5041592;28;20571;-69
2021/01/22 03:49:07;;;;;;;26.75;5.88;;;;;;;;;;5047415;28;20033;-69
2021/01/22 03:51:33;;;;;;;31.23;6.85;;;;;;;;;;5044587;28;20045;-69
2021/01/22 03:53:59;;;;;;;24.02;6.25;;;;;;;;;;5045944;28;20039;-69
2021/01/22 03:56:25;;;;;;;20.90;5.72;;;;;;;;;;5040961;28;20094;-69
2021/01/22 03:58:51;;;;;;;12.00;5.22;;;;;;;;;;5050873;28;20504;-69
2021/01/22 04:01:22;;;;;;;16.80;5.22;;;;;;;;;;5049229;28;20045;-69
2021/01/22 04:03:48;;;;;;;16.25;5.20;;;;;;;;;;5052634;28;20052;-69
2021/01/22 04:06:15;;;;;;;15.52;5.43;;;;;;;;;;5043218;28;20408;-69
2021/01/22 04:08:41;;;;;;;14.88;4.72;;;;;;;;;;5043050;28;20518;-69
2021/01/22 04:11:08;;;;;;;15.65;4.95;;;;;;;;;;5048192;28;20049;-70
2021/01/22 04:13:35;;;;;;;13.90;5.15;;;;;;;;;;5054355;28;20041;-69
2021/01/22 04:16:01;;;;;;;21.55;5.45;;;;;;;;;;5053762;28;20509;-69
2021/01/22 04:18:27;;;;;;;18.02;5.22;;;;;;;;;;5053903;28;20098;-69
2021/01/22 04:20:54;;;;;;;16.88;5.30;;;;;;;;;;5045861;28;20075;-69
2021/01/22 04:23:20;;;;;;;12.93;4.75;;;;;;;;;;5050089;28;20052;-69
2021/01/22 04:25:46;;;;;;;16.17;4.88;;;;;;;;;;5049675;28;20540;-70
2021/01/22 04:28:13;;;;;;;16.75;5.13;;;;;;;;;;5053336;28;20048;-69
2021/01/22 04:30:39;;;;;;;15.00;4.72;;;;;;;;;;5050486;28;20037;-69
2021/01/22 04:33:05;;;;;;;14.45;4.22;;;;;;;;;;5047945;28;20426;-69
2021/01/22 04:35:32;;;;;;;20.40;5.25;;;;;;;;;;5048701;28;20128;-69
2021/01/22 04:37:58;;;;;;;13.85;5.03;;;;;;;;;;5041849;28;20052;-69
2021/01/22 04:40:25;;;;;;;15.52;5.40;;;;;;;;;;5050393;28;20523;-69
2021/01/22 04:42:51;;;;;;;20.70;4.90;;;;;;;;;;5048359;28;20038;-69
2021/01/22 04:45:18;;;;;;;17.42;4.95;;;;;;;;;;5045536;28;20052;-69
2021/01/22 04:47:45;;;;;;;12.65;4.50;;;;;;;;;;5050253;28;20049;-69
2021/01/22 04:50:13;;;;;;;16.17;4.40;;;;;;;;;;5050366;28;20049;-70
2021/01/22 04:52:39;;;;;;;17.20;5.68;;;;;;;;;;5052734;28;20063;-69
2021/01/22 04:55:06;;;;;;;13.15;5.63;;;;;;;;;;5050036;28;20049;-69
2021/01/22 04:57:37;;;;;;;12.77;4.63;;;;;;;;;;5052069;28;20044;-69
2021/01/22 05:00:03;;;;;;;17.13;5.00;;;;;;;;;;5044753;28;20053;-69
2021/01/22 05:02:30;;;;;;;11.90;5.47;;;;;;;;;;5043162;28;20560;-69
2021/01/22 05:04:57;;;;;;;18.17;4.68;;;;;;;;;;5044947;28;20037;-69
2021/01/22 05:07:23;;;;;;;25.05;5.50;;;;;;;;;;5046931;28;20037;-70
2021/01/22 05:09:49;;;;;;;15.35;4.55;;;;;;;;;;5046403;28;20440;-69
2021/01/22 05:12:16;;;;;;;19.33;4.35;;;;;;;;;;5046045;28;20060;-69
2021/01/22 05:14:42;;;;;;;15.18;4.15;;;;;;;;;;5051765;28;20037;-69
2021/01/22 05:17:09;;;;;;;15.23;4.50;;;;;;;;;;5044466;28;20057;-69
2021/01/22 05:19:37;;;;;;;18.90;4.55;;;;;;;;;;5053169;28;20037;-69
2021/01/22 05:22:04;;;;;;;16.88;4.30;;;;;;;;;;5044432;28;20079;-69
2021/01/22 05:24:30;;;;;;;16.63;4.07;;;;;;;;;;5046838;28;21198;-69
2021/01/22 05:26:59;;;;;;;12.50;4.30;;;;;;;;;;5051367;28;20049;-69
2021/01/22 05:29:26;;;;;;;16.15;4.00;;;;;;;;;;5047016;28;20090;-69
2021/01/22 05:31:53;;;;;;;10.02;3.88;;;;;;;;;;5051847;28;20049;-69
2021/01/22 05:34:19;;;;;;;11.65;3.92;;;;;;;;;;5047337;28;20159;-69
2021/01/22 05:36:49;;;;;;;14.65;4.05;;;;;;;;;;5048927;28;20051;-69
2021/01/22 05:39:18;;;;;;;10.68;3.90;;;;;;;;;;5052788;28;20068;-69
2021/01/22 05:41:54;;;;;;;11.77;3.50;;;;;;;;;;5045738;28;20033;-69
2021/01/22 05:44:24;;;;;;;9.50;3.25;;;;;;;;;;5044641;28;20041;-70
2021/01/22 05:47:00;;;;;;;10.43;3.45;;;;;;;;;;5048294;28;20042;-70
2021/01/22 05:49:27;;;;;;;9.50;3.33;;;;;;;;;;5045401;28;20048;-69
2021/01/22 05:51:54;;;;;;;11.95;3.72;;;;;;;;;;5047304;28;20116;-69
2021/01/22 05:54:31;;;;;;;18.63;3.78;;;;;;;;;;5047162;28;20061;-69
2021/01/22 05:56:57;;;;;;;11.45;3.53;;;;;;;;;;5050576;28;20602;-69
2021/01/22 05:59:24;;;;;;;9.65;3.72;;;;;;;;;;5042267;28;20045;-69
2021/01/22 06:01:50;;;;;;;11.02;3.15;;;;;;;;;;5041025;28;20037;-69
2021/01/22 06:04:16;;;;;;;9.25;3.40;;;;;;;;;;5048481;28;20052;-69
2021/01/22 06:06:43;;;;;;;9.15;3.20;;;;;;;;;;5047395;28;20524;-68
2021/01/22 06:09:10;;;;;;;9.43;3.70;;;;;;;;;;5043668;28;20049;-69
2021/01/22 06:11:38;;;;;;;9.88;3.40;;;;;;;;;;5045877;28;20138;-69
2021/01/22 06:14:05;;;;;;;6.70;3.28;;;;;;;;;;5046336;28;20129;-69
2021/01/22 06:16:31;;;;;;;6.15;3.05;;;;;;;;;;5052161;28;20045;-69
2021/01/22 06:19:00;;;;;;;6.07;3.20;;;;;;;;;;5048677;28;20045;-69
2021/01/22 06:21:27;;;;;;;7.53;3.00;;;;;;;;;;5051379;28;20084;-69
2021/01/22 06:23:57;;;;;;;4.97;2.97;;;;;;;;;;5044298;28;20466;-69
2021/01/22 06:26:23;;;;;;;7.70;2.47;;;;;;;;;;5047031;28;20041;-69
2021/01/22 06:28:50;;;;;;;6.53;2.70;;;;;;;;;;5044371;28;20133;-69
2021/01/22 06:31:16;;;;;;;4.88;2.67;;;;;;;;;;5047663;28;20045;-69
2021/01/22 06:33:45;;;;;;;5.90;2.38;;;;;;;;;;5048211;28;20101;-70
2021/01/22 06:36:12;;;;;;;10.13;2.88;;;;;;;;;;5051190;28;20056;-70
2021/01/22 06:38:39;;;;;;;5.10;2.28;;;;;;;;;;5051215;28;20048;-70
2021/01/22 06:41:05;;;;;;;3.97;2.30;;;;;;;;;;5050865;28;20753;-69
2021/01/22 06:43:34;;;;;;;4.55;2.05;;;;;;;;;;5046274;28;20045;-69
2021/01/22 06:46:01;;;;;;;5.97;2.40;;;;;;;;;;5040116;28;20067;-70
2021/01/22 06:48:27;;;;;;;6.47;2.17;;;;;;;;;;5040902;28;20509;-70
2021/01/22 06:51:13;;;;;;;6.20;1.90;;;;;;;;;;5048248;28;20102;-69
2021/01/22 06:53:59;;;;;;;5.75;2.13;;;;;;;;;;5045771;28;20044;-70
2021/01/22 06:56:26;;;;;;;2.80;1.70;;;;;;;;;;5044853;28;20049;-70
2021/01/22 06:58:52;;;;;;;3.92;1.90;;;;;;;;;;5043191;28;20041;-70
2021/01/22 07:01:32;;;;;;;5.47;2.05;;;;;;;;;;5044174;28;20087;-70
2021/01/22 07:03:58;;;;;;;3.33;1.60;;;;;;;;;;5044117;28;20044;-70
2021/01/22 07:06:30;;;;;;;6.57;1.90;;;;;;;;;;5043031;28;20198;-70
2021/01/22 07:08:58;;;;;;;4.30;1.70;;;;;;;;;;5047804;28;20048;-70
2021/01/22 07:11:24;;;;;;;2.80;1.40;;;;;;;;;;5050977;28;20049;-70
2021/01/22 07:13:51;;;;;;;3.45;1.58;;;;;;;;;;5052750;28;20649;-70
2021/01/22 07:16:17;;;;;;;1.42;1.30;;;;;;;;;;5040040;28;20045;-70
2021/01/22 07:18:43;;;;;;;1.23;1.13;;;;;;;;;;5046265;28;20049;-70
2021/01/22 07:21:19;;;;;;;2.42;1.33;;;;;;;;;;5042422;28;20517;-70
2021/01/22 07:23:50;;;;;;;3.03;1.33;;;;;;;;;;5046363;28;20128;-70
2021/01/22 07:26:17;;;;;;;2.05;1.30;;;;;;;;;;5050392;28;20041;-70
2021/01/22 07:28:52;;;;;;;1.65;1.40;;;;;;;;;;5049201;28;20048;-70
2021/01/22 07:31:37;;;;;;;2.15;1.60;;;;;;;;;;5045414;28;20059;-70
2021/01/22 07:34:04;;;;;;;2.92;1.55;;;;;;;;;;5050841;28;20055;-70
2021/01/22 07:36:30;;;;;;;2.38;1.48;;;;;;;;;;5051975;28;20070;-70
2021/01/22 07:38:57;;;;;;;1.80;1.60;;;;;;;;;;5049757;28;20087;-70
2021/01/22 07:41:23;;;;;;;2.55;0.98;;;;;;;;;;5038243;28;20041;-70
2021/01/22 07:44:00;;;;;;;2.70;1.50;;;;;;;;;;5047127;28;20037;-69
2021/01/22 07:46:43;;;;;;;3.38;1.48;;;;;;;;;;5046007;28;20099;-70
2021/01/22 07:49:10;;;;;;;1.50;1.40;;;;;;;;;;5046108;28;20508;-69
2021/01/22 07:51:36;;;;;;;4.07;1.80;;;;;;;;;;5048764;28;20049;-70
2021/01/22 07:54:03;;;;;;;2.97;1.35;;;;;;;;;;5041200;28;20052;-69
2021/01/22 07:56:36;;;;;;;2.28;1.70;;;;;;;;;;5044439;28;20051;-70
2021/01/22 07:59:04;;;;;;;3.97;1.63;;;;;;;;;;5046711;28;20041;-70
2021/01/22 08:01:30;;;;;;;2.65;1.30;;;;;;;;;;5050100;28;20037;-70
2021/01/22 08:03:56;;;;;;;2.85;1.50;;;;;;;;;;5044847;28;20052;-70
2021/01/22 08:06:23;;;;;;;2.33;1.52;;;;;;;;;;5042797;28;20586;-70
2021/01/22 08:09:05;;;;;;;2.38;2.13;;;;;;;;;;5049361;28;20577;-70
2021/01/22 08:11:31;;;;;;;3.88;1.40;;;;;;;;;;5050728;28;20055;-70
2021/01/22 08:13:58;;;;;;;2.13;1.48;;;;;;;;;;5052341;28;20041;-70
2021/01/22 08:16:24;;;;;;;1.48;1.35;;;;;;;;;;5040280;28;20040;-70
2021/01/22 08:18:51;;;;;;;3.17;1.17;;;;;;;;;;5046401;28;20048;-70
2021/01/22 08:21:19;;;;;;;3.30;1.65;;;;;;;;;;5045587;28;20052;-70
2021/01/22 08:23:47;;;;;;;3.38;1.40;;;;;;;;;;5046127;28;20041;-70
2021/01/22 08:26:14;;;;;;;1.17;1.02;;;;;;;;;;5051159;28;20523;-71
2021/01/22 08:28:41;;;;;;;;;;;;;;;;;;5042885;28;20094;-71
2021/01/22 08:31:08;;;;;;;2.85;1.30;;;;;;;;;;5044762;28;20446;-70
2021/01/22 08:33:39;;;;;;;1.30;1.20;;;;;;;;;;5049297;28;20079;-71
2021/01/22 08:36:06;;;;;;;1.23;1.13;;;;;;;;;;5051169;28;20420;-70
2021/01/22 08:38:32;;;;;;;1.73;0.80;;;;;;;;;;5050032;28;20287;-71
2021/01/22 08:40:58;;;;;;;1.30;1.20;;;;;;;;;;5057130;28;20686;-71
2021/01/22 08:43:25;;;;;;;6.60;1.20;;;;;;;;;;5050580;28;20124;-71
2021/01/22 08:46:07;;;;;;;1.67;1.17;;;;;;;;;;5047130;28;20648;-71
2021/01/22 08:48:36;;;;;;;0.88;0.73;;;;;;;;;;5048855;28;20460;-70
2021/01/22 08:51:03;;;;;;;1.52;0.98;;;;;;;;;;5051719;28;20041;-71
2021/01/22 08:53:29;;;;;;;1.92;1.30;;;;;;;;;;5048239;28;20049;-70
2021/01/22 08:56:11;;;;;;;2.40;1.00;;;;;;;;;;5055256;28;20564;-70
2021/01/22 08:58:56;;;;;;;0.90;0.85;;;;;;;;;;5049374;28;20413;-71
2021/01/22 09:01:22;;;;;;;1.33;1.23;;;;;;;;;;5049808;28;20475;-71
2021/01/22 09:03:49;;;;;;;1.88;1.10;;;;;;;;;;5058499;28;20080;-71
2021/01/22 09:06:15;;;;;;;1.83;1.33;;;;;;;;;;5051607;28;20534;-70
2021/01/22 09:08:54;;;;;;;2.25;1.50;;;;;;;;;;5052140;28;20049;-70
2021/01/22 09:11:36;;;;;;;2.17;1.40;;;;;;;;;;5051229;28;20037;-71
2021/01/22 09:14:02;;;;;;;1.48;1.20;;;;;;;;;;5048276;28;20049;-71
2021/01/22 09:16:28;;;;;;;1.30;1.20;;;;;;;;;;5052671;28;20096;-70
2021/01/22 09:18:59;;;;;;;1.10;1.00;;;;;;;;;;5054044;28;20041;-70
2021/01/22 09:21:25;;;;;;;1.30;1.20;;;;;;;;;;5047776;28;20049;-70
2021/01/22 09:23:52;;;;;;;0.93;0.93;;;;;;;;;;5052501;28;20115;-71
2021/01/22 09:26:18;;;;;;;2.00;1.10;;;;;;;;;;5049308;28;20139;-71
2021/01/22 09:28:46;;;;;;;1.03;0.87;;;;;;;;;;5046371;28;20117;-71
2021/01/22 09:31:12;;;;;;;0.77;0.77;;;;;;;;;;5045153;28;20049;-70
2021/01/22 09:33:38;;;;;;;1.05;0.80;;;;;;;;;;5048119;28;20044;-71
2021/01/22 09:36:05;;;;;;;1.35;1.00;;;;;;;;;;5038139;28;20588;-71
2021/01/22 09:38:31;;;;;;;0.70;0.70;;;;;;;;;;5041943;28;20104;-71
2021/01/22 09:40:57;;;;;;;0.80;0.80;;;;;;;;;;5051646;28;20127;-70
2021/01/22 09:43:23;;;;;;;6.40;1.00;;;;;;;;;;5051882;28;20036;-71
2021/01/22 09:45:50;;;;;;;2.67;0.60;;;;;;;;;;5053764;28;20033;-71
2021/01/22 09:48:18;;;;;;;0.70;0.70;;;;;;;;;;5038946;28;20409;-71
2021/01/22 09:50:45;;;;;;;0.80;0.80;;;;;;;;;;5040557;28;20497;-71
2021/01/22 09:53:12;;;;;;;0.90;0.90;;;;;;;;;;5045941;28;20028;-71
2021/01/22 09:55:48;;;;;;;1.60;0.80;;;;;;;;;;5047294;28;20067;-72
2021/01/22 09:58:15;;;;;;;0.82;0.82;;;;;;;;;;5050105;28;20059;-71
2021/01/22 10:00:41;;;;;;;0.90;0.90;;;;;;;;;;5041806;28;20374;-71
2021/01/22 10:03:07;;;;;;;0.80;0.80;;;;;;;;;;5050097;28;20123;-71
2021/01/22 10:05:34;;;;;;;0.77;0.77;;;;;;;;;;5044886;28;20370;-71
2021/01/22 10:08:01;;;;;;;0.60;0.60;;;;;;;;;;5048242;28;20056;-71
2021/01/22 10:10:27;;;;;;;0.60;0.60;;;;;;;;;;5043360;28;20037;-72
2021/01/22 10:12:54;;;;;;;0.70;0.70;;;;;;;;;;5044535;28;20489;-73
2021/01/22 10:15:20;;;;;;;2.70;0.90;;;;;;;;;;5046612;28;20041;-71
2021/01/22 10:17:46;;;;;;;1.17;0.73;;;;;;;;;;5052004;28;20345;-71
2021/01/22 10:20:13;;;;;;;0.97;0.60;;;;;;;;;;5046707;28;20132;-71
2021/01/22 10:22:40;;;;;;;0.57;0.57;;;;;;;;;;5044725;28;20076;-72
2021/01/22 10:25:06;;;;;;;0.65;0.65;;;;;;;;;;5037793;28;20124;-72
2021/01/22 10:27:33;;;;;;;0.50;0.50;;;;;;;;;;5042899;28;20053;-72
2021/01/22 10:29:59;;;;;;;1.02;0.70;;;;;;;;;;5057026;28;20106;-71
2021/01/22 10:32:25;;;;;;;0.90;0.90;;;;;;;;;;5047915;28;20056;-72
2021/01/22 10:34:52;;;;;;;0.75;0.60;;;;;;;;;;5052823;28;20492;-72
2021/01/22 10:37:21;;;;;;;1.92;0.90;;;;;;;;;;5052783;28;20042;-72
2021/01/22 10:39:47;;;;;;;0.77;0.60;;;;;;;;;;5050365;28;20523;-71
2021/01/22 10:42:14;;;;;;;1.17;0.70;;;;;;;;;;5046945;28;20139;-72
2021/01/22 10:44:40;;;;;;;2.95;0.73;;;;;;;;;;5043503;28;20086;-72
2021/01/22 10:47:07;;;;;;;1.20;0.85;;;;;;;;;;5045488;28;20458;-71
2021/01/22 10:49:53;;;;;;;1.30;0.90;;;;;;;;;;5049034;28;20095;-71
2021/01/22 10:52:19;;;;;;;1.27;0.98;;;;;;;;;;5049988;28;20041;-71
2021/01/22 10:54:46;;;;;;;1.23;0.80;;;;;;;;;;5051056;28;20037;-71
2021/01/22 10:57:12;;;;;;;3.20;1.35;;;;;;;;;;5050243;28;20040;-72
2021/01/22 10:59:38;;;;;;;2.17;1.17;;;;;;;;;;5043191;28;20152;-72
2021/01/22 11:02:08;;;;;;;2.22;1.30;;;;;;;;;;5045557;28;20045;-71
2021/01/22 11:04:35;;;;;;;2.13;1.30;;;;;;;;;;5048290;28;20037;-71
2021/01/22 11:07:03;;;;;;;3.90;1.38;;;;;;;;;;5056256;28;20055;-70
2021/01/22 11:09:30;;;;;;;6.68;1.60;;;;;;;;;;5043433;28;20045;-70
2021/01/22 11:11:57;;;;;;;6.18;1.52;;;;;;;;;;5043762;28;20041;-70
2021/01/22 11:14:26;;;;;;;3.13;1.50;;;;;;;;;;5051432;28;20494;-70
2021/01/22 11:16:52;;;;;;;3.25;1.92;;;;;;;;;;5039332;28;20451;-70
2021/01/22 11:19:19;;;;;;;7.63;1.90;;;;;;;;;;5046211;28;20108;-70
2021/01/22 11:21:45;;;;;;;4.40;1.90;;;;;;;;;;5039769;28;20045;-71
2021/01/22 11:24:11;;;;;;;9.35;2.70;;;;;;;;;;5039199;28;20050;-70
2021/01/22 11:26:38;;;;;;;12.68;2.83;;;;;;;;;;5052090;28;20538;-70
2021/01/22 11:29:04;;;;;;;11.23;2.65;;;;;;;;;;5045499;28;20056;-71
2021/01/22 11:31:30;;;;;;;8.38;3.00;;;;;;;;;;5041298;28;20033;-70
2021/01/22 11:33:57;;;;;;;9.45;2.72;;;;;;;;;;5046929;28;20654;-70
2021/01/22 11:36:23;;;;;;;8.85;3.35;;;;;;;;;;5050861;28;20107;-71
2021/01/22 11:38:49;;;;;;;13.30;3.50;;;;;;;;;;5045891;28;20045;-69
2021/01/22 11:41:16;;;;;;;16.38;3.38;;;;;;;;;;5050392;28;20144;-70
2021/01/22 11:43:44;;;;;;;14.07;3.60;;;;;;;;;;5050179;28;20049;-70
2021/01/22 11:46:11;;;;;;;12.90;3.53;;;;;;;;;;5039124;28;20068;-70
2021/01/22 11:48:42;;;;;;;17.80;4.10;;;;;;;;;;5049626;28;20052;-70
2021/01/22 11:51:08;;;;;;;14.80;3.70;;;;;;;;;;5038922;28;20061;-70
2021/01/22 11:53:35;;;;;;;18.73;4.55;;;;;;;;;;5047864;28;20045;-70
2021/01/22 11:56:01;;;;;;;12.13;3.88;;;;;;;;;;5047855;28;20037;-70
2021/01/22 11:58:27;;;;;;;29.98;4.35;;;;;;;;;;5049788;28;20102;-70
2021/01/22 12:00:54;;;;;;;17.95;3.95;;;;;;;;;;5041662;28;20045;-70
2021/01/22 12:03:20;;;;;;;20.05;4.32;;;;;;;;;;5046660;28;20043;-70
2021/01/22 12:05:46;;;;;;;19.83;4.75;;;;;;;;;;5043831;28;20036;-70
2021/01/22 12:08:22;;;;;;;18.27;4.07;;;;;;;;;;5046189;28;20508;-69
2021/01/22 12:10:48;;;;;;;31.48;5.00;;;;;;;;;;5047379;28;20102;-70
2021/01/22 12:13:15;;;;;;;24.58;4.53;;;;;;;;;;5050302;28;21018;-70
2021/01/22 12:15:41;;;;;;;25.27;3.88;;;;;;;;;;5035634;28;20087;-70
2021/01/22 12:18:07;;;;;;;24.73;4.65;;;;;;;;;;5046759;28;20497;-70
2021/01/22 12:20:34;;;;;;;22.43;3.97;;;;;;;;;;5036499;28;20120;-69
2021/01/22 12:23:01;;;;;;;23.85;4.18;;;;;;;;;;5042964;28;20037;-70
2021/01/22 12:25:27;;;;;;;29.33;4.00;;;;;;;;;;5048438;28;20053;-70
2021/01/22 12:27:53;;;;;;;20.90;4.75;;;;;;;;;;5050429;28;20136;-69
2021/01/22 12:30:20;;;;;;;22.00;4.47;;;;;;;;;;5048025;28;20048;-70
2021/01/22 12:32:46;;;;;;;22.17;4.07;;;;;;;;;;5044802;28;20041;-69
2021/01/22 12:35:15;;;;;;;36.03;5.00;;;;;;;;;;5053277;28;20055;-70
2021/01/22 12:37:41;;;;;;;23.48;3.88;;;;;;;;;;5044889;28;20551;-70
2021/01/22 12:40:08;;;;;;;20.75;4.15;;;;;;;;;;5052947;28;20056;-70
2021/01/22 12:42:34;;;;;;;25.75;4.50;;;;;;;;;;5046010;28;20037;-70
2021/01/22 12:45:01;;;;;;;29.75;4.53;;;;;;;;;;5047989;28;20049;-69
2021/01/22 12:47:27;;;;;;;31.77;4.22;;;;;;;;;;5045055;28;20128;-69
2021/01/22 12:49:54;;;;;;;31.58;4.25;;;;;;;;;;5045957;28;20100;-70
2021/01/22 12:52:20;;;;;;;32.22;5.18;;;;;;;;;;5051658;28;20045;-69
2021/01/22 12:54:46;;;;;;;29.10;4.57;;;;;;;;;;5044037;28;20033;-69
2021/01/22 12:57:12;;;;;;;32.95;4.25;;;;;;;;;;5046751;28;20044;-69
2021/01/22 12:59:38;;;;;;;20.83;3.70;;;;;;;;;;5048855;28;20076;-69
2021/01/22 13:02:04;;;;;;;33.88;4.35;;;;;;;;;;5047873;28;20091;-69
2021/01/22 13:04:31;;;;;;;38.65;4.10;;;;;;;;;;5048396;28;20044;-69
2021/01/22 13:06:57;;;;;;;22.55;4.40;;;;;;;;;;5043628;28;20041;-69
2021/01/22 13:09:24;;;;;;;23.15;4.65;;;;;;;;;;5063859;28;20037;-69
2021/01/22 13:11:50;;;;;;;30.77;4.65;;;;;;;;;;5048687;28;20551;-69
2021/01/22 13:14:16;;;;;;;34.00;4.72;;;;;;;;;;5043332;28;20124;-69
2021/01/22 13:16:43;;;;;;;45.55;4.45;;;;;;;;;;5046701;28;20050;-69
2021/01/22 13:19:09;;;;;;;35.08;4.82;;;;;;;;;;5048735;28;20041;-69
2021/01/22 13:21:35;;;;;;;33.08;5.05;;;;;;;;;;5046413;28;20124;-69
2021/01/22 13:24:03;;;;;;;29.95;4.43;;;;;;;;;;5047874;28;20057;-69
2021/01/22 13:26:29;;;;;;;29.15;4.05;;;;;;;;;;5051743;28;20455;-69
2021/01/22 13:28:55;;;;;;;35.65;4.38;;;;;;;;;;5044855;28;20393;-69
2021/01/22 13:31:22;;;;;;;25.10;4.22;;;;;;;;;;5039430;28;20467;-70
2021/01/22 13:33:49;;;;;;;34.63;4.57;;;;;;;;;;5052508;28;20048;-69
2021/01/22 13:36:29;;;;;;;41.60;5.45;;;;;;;;;;5041281;28;20056;-69
2021/01/22 13:38:56;;;;;;;35.00;4.23;;;;;;;;;;5044920;28;20091;-69
2021/01/22 13:41:22;;;;;;;28.25;5.15;;;;;;;;;;5041355;28;20052;-69
2021/01/22 13:43:48;;;;;;;44.17;4.40;;;;;;;;;;5050977;28;20052;-69
2021/01/22 13:46:14;;;;;;;36.17;4.40;;;;;;;;;;5050378;28;20038;-69
2021/01/22 13:48:41;;;;;;;34.53;4.23;;;;;;;;;;5045611;28;20045;-70
2021/01/22 13:51:07;;;;;;;35.00;3.85;;;;;;;;;;5039896;28;20517;-70
2021/01/22 13:53:33;;;;;;;38.92;4.45;;;;;;;;;;5048668;28;20110;-71
2021/01/22 13:55:59;;;;;;;34.15;4.95;;;;;;;;;;5053762;28;20397;-70
2021/01/22 13:58:27;;;;;;;24.88;5.05;;;;;;;;;;5053819;28;20080;-70
2021/01/22 14:00:54;;;;;;;29.10;4.38;;;;;;;;;;5049886;28;20104;-70
2021/01/22 14:03:20;;;;;;;39.65;4.90;;;;;;;;;;5051899;28;20048;-70
2021/01/22 14:05:46;;;;;;;32.35;4.32;;;;;;;;;;5046004;28;20041;-70
2021/01/22 14:08:12;;;;;;;30.90;4.68;;;;;;;;;;5043487;28;20424;-70
2021/01/22 14:10:38;;;;;;;25.05;5.05;;;;;;;;;;5049466;28;20583;-69
2021/01/22 14:13:04;;;;;;;33.63;4.90;;;;;;;;;;5049666;28;20511;-70
2021/01/22 14:15:31;;;;;;;32.85;4.97;;;;;;;;;;5041241;28;20045;-70
2021/01/22 14:17:57;;;;;;;35.00;5.67;;;;;;;;;;5049610;28;20048;-70
2021/01/22 14:20:24;;;;;;;21.13;4.32;;;;;;;;;;5048205;28;20295;-70
2021/01/22 14:22:50;;;;;;;30.15;4.70;;;;;;;;;;5036543;28;20547;-70
2021/01/22 14:25:16;;;;;;;40.35;4.63;;;;;;;;;;5047196;28;20416;-70
2021/01/22 14:27:42;;;;;;;32.05;3.83;;;;;;;;;;5051229;28;20052;-70
2021/01/22 14:30:09;;;;;;;29.95;4.13;;;;;;;;;;5039375;28;20123;-70
2021/01/22 14:32:35;;;;;;;38.30;4.55;;;;;;;;;;5050679;28;20045;-70
2021/01/22 14:35:02;;;;;;;43.05;4.90;;;;;;;;;;5047948;28;20535;-70
2021/01/22 14:37:28;;;;;;;33.10;5.53;;;;;;;;;;5045362;28;20049;-70
2021/01/22 14:39:55;;;;;;;25.85;4.85;;;;;;;;;;5047390;28;20103;-70